createdAt,value
2023-04-12T00:00:11.844Z,100652.28
2023-04-12T00:02:40.490Z,100647.44
2023-04-12T00:05:09.627Z,100645.69
2023-04-12T00:07:38.272Z,100637.88
2023-04-12T00:10:07.833Z,100637.53
2023-04-12T00:12:35.341Z,100640.19
2023-04-12T00:15:05.676Z,100635.59
2023-04-12T00:17:35.082Z,100639.75
2023-04-12T00:20:06.139Z,100632.31
2023-04-12T00:22:33.700Z,100626.19
2023-04-12T00:25:01.303Z,100616.06
2023-04-12T00:27:28.854Z,100624.03
2023-04-12T00:29:56.411Z,100606.66
2023-04-12T00:32:25.385Z,100611.63
2023-04-12T00:34:52.900Z,100601.84
2023-04-12T00:37:21.473Z,100605.84
2023-04-12T00:39:49.064Z,100599.63
2023-04-12T00:42:16.731Z,100600.78
2023-04-12T00:44:44.637Z,100593.94
2023-04-12T00:47:12.271Z,100592.66
2023-04-12T00:49:41.380Z,100601.13
2023-04-12T00:52:09.994Z,100599.34
2023-04-12T00:54:38.319Z,100603.34
2023-04-12T00:57:06.181Z,100587.78
2023-04-12T00:59:33.821Z,100590.72
2023-04-12T01:02:02.158Z,100588.50
2023-04-12T01:04:29.888Z,100577.72
2023-04-12T01:07:10.046Z,100575.06
2023-04-12T01:09:51.139Z,100563.31
2023-04-12T01:12:26.825Z,100569.47
2023-04-12T01:15:02.110Z,100557.38
2023-04-12T01:17:37.881Z,100553.59
2023-04-12T01:20:14.132Z,100558.06
2023-04-12T01:23:02.282Z,100548.38
2023-04-12T01:25:40.169Z,100543.53
2023-04-12T01:28:12.710Z,100539.25
2023-04-12T01:30:41.146Z,100534.31
2023-04-12T01:33:12.626Z,100528.19
2023-04-12T01:35:41.422Z,100524.25
2023-04-12T01:38:10.550Z,100519.97
2023-04-12T01:40:40.493Z,100526.06
2023-04-12T01:43:11.504Z,100519.50
2023-04-12T01:45:40.260Z,100525.28
2023-04-12T01:48:10.214Z,100519.00
2023-04-12T01:50:45.536Z,100515.84
2023-04-12T01:53:16.274Z,100507.88
2023-04-12T01:55:46.649Z,100506.91
2023-04-12T01:58:18.234Z,100511.50
2023-04-12T02:00:46.271Z,100499.94
2023-04-12T02:03:14.706Z,100493.63
2023-04-12T02:05:43.124Z,100489.16
2023-04-12T02:08:10.894Z,100487.00
2023-04-12T02:10:40.296Z,100483.34
2023-04-12T02:13:07.880Z,100490.00
2023-04-12T02:15:38.502Z,100479.06
2023-04-12T02:18:07.342Z,100471.81
2023-04-12T02:20:35.528Z,100470.47
2023-04-12T02:23:03.099Z,100459.25
2023-04-12T02:25:30.878Z,100456.94
2023-04-12T02:27:58.453Z,100454.66
2023-04-12T02:30:25.989Z,100448.72
2023-04-12T02:32:56.216Z,100453.31
2023-04-12T02:35:27.876Z,100450.38
2023-04-12T02:38:01.647Z,100437.31
2023-04-12T02:40:30.509Z,100441.16
2023-04-12T02:42:58.499Z,100431.88
2023-04-12T02:45:27.566Z,100422.75
2023-04-12T02:47:57.811Z,100418.16
2023-04-12T02:50:30.009Z,100416.34
2023-04-12T02:53:05.637Z,100408.06
2023-04-12T02:55:33.197Z,100397.97
2023-04-12T02:58:03.820Z,100388.25
2023-04-12T03:00:31.961Z,100387.19
2023-04-12T03:03:03.988Z,100382.13
2023-04-12T03:05:32.892Z,100373.97
2023-04-12T03:08:01.549Z,100361.91
2023-04-12T03:10:51.987Z,100356.25
2023-04-12T03:13:20.313Z,100345.50
2023-04-12T03:15:50.771Z,100338.59
2023-04-12T03:18:20.741Z,100332.22
2023-04-12T03:20:52.361Z,100337.78
2023-04-12T03:23:20.383Z,100327.66
2023-04-12T03:25:55.012Z,100319.34
2023-04-12T03:28:34.028Z,100313.34
2023-04-12T03:31:04.673Z,100301.56
2023-04-12T03:33:43.593Z,100300.47
2023-04-12T03:36:26.940Z,100296.78
2023-04-12T03:39:01.114Z,100302.09
2023-04-12T03:41:31.184Z,100296.78
2023-04-12T03:44:04.664Z,100296.88
2023-04-12T03:46:34.591Z,100290.59
2023-04-12T03:49:07.952Z,100282.91
2023-04-12T03:51:35.960Z,100282.09
2023-04-12T03:54:04.810Z,100275.44
2023-04-12T03:56:57.508Z,100278.09
2023-04-12T03:59:30.796Z,100252.19
2023-04-12T04:01:58.942Z,100258.84
2023-04-12T04:04:30.238Z,100258.00
2023-04-12T04:07:02.452Z,100238.75
2023-04-12T04:09:34.626Z,100238.94
2023-04-12T04:12:02.338Z,100236.34
2023-04-12T04:14:34.699Z,100232.25
2023-04-12T04:17:03.464Z,100229.81
2023-04-12T04:19:32.955Z,100213.09
2023-04-12T04:22:01.940Z,100211.53
2023-04-12T04:24:29.824Z,100206.78
2023-04-12T04:27:01.605Z,100202.31
2023-04-12T04:29:33.682Z,100198.84
2023-04-12T04:32:03.973Z,100200.31
2023-04-12T04:34:33.335Z,100190.72
2023-04-12T04:37:10.119Z,100186.69
2023-04-12T04:39:39.068Z,100182.03
2023-04-12T04:42:07.614Z,100167.41
2023-04-12T04:45:02.344Z,100165.75
2023-04-12T04:47:33.007Z,100171.94
2023-04-12T04:50:02.072Z,100165.63
2023-04-12T04:52:29.617Z,100159.59
2023-04-12T04:55:04.745Z,100153.47
2023-04-12T04:57:37.097Z,100142.00
2023-04-12T05:00:11.306Z,100138.31
2023-04-12T05:02:43.632Z,100141.63
2023-04-12T05:05:15.941Z,100142.94
2023-04-12T05:07:47.235Z,100138.63
2023-04-12T05:10:15.600Z,100137.13
2023-04-12T05:12:44.384Z,100139.16
2023-04-12T05:15:14.543Z,100136.75
2023-04-12T05:17:42.396Z,100138.41
2023-04-12T05:20:12.248Z,100137.56
2023-04-12T05:22:41.120Z,100138.47
2023-04-12T05:25:09.543Z,100130.84
2023-04-12T05:27:43.538Z,100131.06
2023-04-12T05:30:16.098Z,100129.91
2023-04-12T05:32:44.749Z,100124.25
2023-04-12T05:35:14.343Z,100117.38
2023-04-12T05:37:45.403Z,100109.47
2023-04-12T05:40:14.407Z,100107.28
2023-04-12T05:42:42.701Z,100102.84
2023-04-12T05:45:11.535Z,100105.13
2023-04-12T05:47:39.405Z,100105.78
2023-04-12T05:50:08.286Z,100103.38
2023-04-12T05:52:37.520Z,100103.47
2023-04-12T05:55:08.789Z,100102.66
2023-04-12T05:57:40.628Z,100096.72
2023-04-12T06:00:13.101Z,100083.09
2023-04-12T06:02:41.005Z,100087.59
2023-04-12T06:05:10.275Z,100084.00
2023-04-12T06:07:39.200Z,100069.13
2023-04-12T06:10:09.923Z,100064.09
2023-04-12T06:12:37.485Z,100061.00
2023-04-12T06:15:06.538Z,100053.47
2023-04-12T06:17:34.332Z,100065.31
2023-04-12T06:20:04.866Z,100055.38
2023-04-12T06:22:32.810Z,100052.53
2023-04-12T06:25:00.470Z,100053.59
2023-04-12T06:27:29.363Z,100049.53
2023-04-12T06:29:56.963Z,100034.84
2023-04-12T06:32:25.448Z,100025.84
2023-04-12T06:34:54.650Z,100026.25
2023-04-12T06:37:22.858Z,100018.69
2023-04-12T06:39:50.399Z,100018.28
2023-04-12T06:42:18.397Z,100008.91
2023-04-12T06:44:47.246Z,100019.50
2023-04-12T06:47:15.966Z,100016.44
2023-04-12T06:49:43.632Z,100016.84
2023-04-12T06:52:11.144Z,100012.13
2023-04-12T06:54:38.843Z,99998.78
2023-04-12T06:57:10.982Z,99998.94
2023-04-12T06:59:38.511Z,99994.19
2023-04-12T07:02:08.011Z,99988.59
2023-04-12T07:04:36.095Z,99996.13
2023-04-12T07:07:03.693Z,99985.41
2023-04-12T07:09:32.142Z,99973.03
2023-04-12T07:11:59.722Z,99970.47
2023-04-12T07:14:27.328Z,99961.53
2023-04-12T07:16:54.957Z,99964.75
2023-04-12T07:19:23.923Z,99967.59
2023-04-12T07:21:51.514Z,99964.53
2023-04-12T07:24:18.993Z,99957.25
2023-04-12T07:26:46.543Z,99960.91
2023-04-12T07:29:14.068Z,99961.81
2023-04-12T07:31:41.745Z,99959.66
2023-04-12T07:34:09.450Z,99968.47
2023-04-12T07:36:38.613Z,99948.78
2023-04-12T07:39:06.106Z,99954.88
2023-04-12T07:41:33.615Z,99952.03
2023-04-12T07:44:01.137Z,99953.03
2023-04-12T07:46:28.731Z,99941.97
2023-04-12T07:48:56.424Z,99932.25
2023-04-12T07:51:24.221Z,99935.13
2023-04-12T07:53:53.310Z,99931.69
2023-04-12T07:56:20.868Z,99928.47
2023-04-12T07:58:48.760Z,99923.75
2023-04-12T08:01:16.916Z,99928.72
2023-04-12T08:03:44.765Z,99930.25
2023-04-12T08:06:12.535Z,99918.28
2023-04-12T08:08:40.451Z,99920.94
2023-04-12T08:11:09.384Z,99902.06
2023-04-12T08:13:36.943Z,99907.31
2023-04-12T08:16:05.024Z,99901.22
2023-04-12T08:18:32.614Z,99890.63
2023-04-12T08:21:00.208Z,99886.84
2023-04-12T08:23:29.037Z,99877.66
2023-04-12T08:26:03.081Z,99886.63
2023-04-12T08:28:32.832Z,99877.13
2023-04-12T08:31:00.969Z,99874.50
2023-04-12T08:33:28.625Z,99865.69
2023-04-12T08:35:56.582Z,99860.59
2023-04-12T08:38:37.335Z,99857.34
2023-04-12T08:41:11.768Z,99847.09
2023-04-12T08:43:45.553Z,99845.63
2023-04-12T08:46:15.384Z,99842.59
2023-04-12T08:48:46.382Z,99837.34
2023-04-12T08:51:15.167Z,99817.63
2023-04-12T08:53:42.794Z,99826.22
2023-04-12T08:56:12.135Z,99811.84
2023-04-12T08:58:42.943Z,99817.19
2023-04-12T09:01:14.521Z,99799.53
2023-04-12T09:03:43.245Z,99793.44
2023-04-12T09:06:11.993Z,99784.38
2023-04-12T09:08:51.996Z,99779.03
2023-04-12T09:11:24.298Z,99781.72
2023-04-12T09:13:53.238Z,99776.03
2023-04-12T09:16:38.747Z,99775.81
2023-04-12T09:19:06.645Z,99772.00
2023-04-12T09:21:35.478Z,99770.50
2023-04-12T09:24:11.009Z,99772.81
2023-04-12T09:26:40.477Z,99761.00
2023-04-12T09:29:23.934Z,99751.81
2023-04-12T09:31:57.243Z,99744.63
2023-04-12T09:34:26.625Z,99734.88
2023-04-12T09:36:55.659Z,99712.81
2023-04-12T09:39:32.004Z,99711.06
2023-04-12T09:42:08.907Z,99701.66
2023-04-12T09:44:41.563Z,99697.13
2023-04-12T09:47:09.780Z,99693.28
2023-04-12T09:49:39.922Z,99692.03
2023-04-12T09:52:08.172Z,99684.94
2023-04-12T09:54:40.233Z,99678.09
2023-04-12T09:57:08.807Z,99688.41
2023-04-12T09:59:39.124Z,99674.25
2023-04-12T10:02:15.298Z,99675.16
2023-04-12T10:04:43.919Z,99669.16
2023-04-12T10:07:13.869Z,99672.25
2023-04-12T10:09:43.262Z,99670.75
2023-04-12T10:12:11.149Z,99679.47
2023-04-12T10:14:39.929Z,99679.13
2023-04-12T10:17:11.046Z,99662.38
2023-04-12T10:19:40.685Z,99664.91
2023-04-12T10:22:08.305Z,99653.41
2023-04-12T10:24:35.912Z,99662.47
2023-04-12T10:27:04.525Z,99657.94
2023-04-12T10:29:34.366Z,99645.63
2023-04-12T10:32:22.409Z,99649.16
2023-04-12T10:34:54.311Z,99642.66
2023-04-12T10:37:22.228Z,99652.41
2023-04-12T10:39:53.963Z,99636.84
2023-04-12T10:42:24.159Z,99637.09
2023-04-12T10:44:53.169Z,99635.56
2023-04-12T10:48:01.544Z,99635.47
2023-04-12T10:50:31.260Z,99630.53
2023-04-12T10:53:25.653Z,99631.97
2023-04-12T10:55:53.568Z,99644.97
2023-04-12T10:59:01.611Z,99640.00
2023-04-12T11:01:39.640Z,99643.41
2023-04-12T11:04:12.357Z,99644.47
2023-04-12T11:06:52.378Z,99646.06
2023-04-12T11:09:50.896Z,99646.56
2023-04-12T11:12:28.971Z,99644.13
2023-04-12T11:15:01.343Z,99647.50
2023-04-12T11:17:37.914Z,99647.84
2023-04-12T11:20:12.536Z,99651.31
2023-04-12T11:22:40.833Z,99666.28
2023-04-12T11:25:10.457Z,99655.25
2023-04-12T11:27:38.769Z,99655.69
2023-04-12T11:30:07.750Z,99656.75
2023-04-12T11:32:41.338Z,99646.63
2023-04-12T11:35:10.653Z,99659.03
2023-04-12T11:37:39.935Z,99660.41
2023-04-12T11:40:10.403Z,99657.16
2023-04-12T11:42:40.938Z,99653.19
2023-04-12T11:45:15.740Z,99660.16
2023-04-12T11:47:46.108Z,99647.22
2023-04-12T11:50:29.060Z,99648.69
2023-04-12T11:52:56.644Z,99650.09
2023-04-12T11:55:24.401Z,99642.44
2023-04-12T11:57:54.321Z,99649.03
2023-04-12T12:00:25.391Z,99645.59
2023-04-12T12:03:06.688Z,99646.78
2023-04-12T12:05:38.391Z,99645.31
2023-04-12T12:08:07.728Z,99633.63
2023-04-12T12:10:51.972Z,99646.69
2023-04-12T12:13:25.123Z,99630.50
2023-04-12T12:15:53.229Z,99631.44
2023-04-12T12:18:27.203Z,99640.72
2023-04-12T12:20:56.498Z,99627.06
2023-04-12T12:23:31.528Z,99625.47
2023-04-12T12:26:10.457Z,99630.34
2023-04-12T12:28:45.007Z,99631.47
2023-04-12T12:31:12.634Z,99621.56
2023-04-12T12:33:46.435Z,99621.34
2023-04-12T12:36:19.656Z,99616.88
2023-04-12T12:38:48.991Z,99621.81
2023-04-12T12:41:18.033Z,99610.91
2023-04-12T12:43:46.652Z,99610.72
2023-04-12T12:46:14.965Z,99611.28
2023-04-12T12:48:43.044Z,99604.44
2023-04-12T12:51:11.798Z,99595.00
2023-04-12T12:53:41.679Z,99593.94
2023-04-12T12:56:10.989Z,99587.44
2023-04-12T12:58:40.893Z,99584.63
2023-04-12T13:01:09.052Z,99576.78
2023-04-12T13:03:36.833Z,99566.47
2023-04-12T13:06:05.106Z,99564.81
2023-04-12T13:08:35.142Z,99566.47
2023-04-12T13:11:04.043Z,99559.47
2023-04-12T13:13:31.614Z,99556.81
2023-04-12T13:15:59.175Z,99557.06
2023-04-12T13:18:26.729Z,99555.47
2023-04-12T13:20:54.354Z,99542.28
2023-04-12T13:23:21.973Z,99539.75
2023-04-12T13:25:49.517Z,99536.03
2023-04-12T13:28:18.541Z,99537.09
2023-04-12T13:30:48.495Z,99531.63
2023-04-12T13:33:20.058Z,99531.41
2023-04-12T13:35:49.450Z,99533.72
2023-04-12T13:38:16.986Z,99526.06
2023-04-12T13:40:44.556Z,99529.31
2023-04-12T13:43:12.065Z,99522.03
2023-04-12T13:45:41.456Z,99521.09
2023-04-12T13:48:09.079Z,99520.97
2023-04-12T13:50:36.675Z,99514.13
2023-04-12T13:53:04.211Z,99511.47
2023-04-12T13:55:31.857Z,99506.34
2023-04-12T13:57:59.502Z,99501.50
2023-04-12T14:00:27.304Z,99501.00
2023-04-12T14:02:56.783Z,99512.94
2023-04-12T14:05:24.384Z,99510.75
2023-04-12T14:07:52.485Z,99509.81
2023-04-12T14:10:20.211Z,99509.13
2023-04-12T14:12:47.895Z,99500.44
2023-04-12T14:15:16.172Z,99493.47
2023-04-12T14:17:43.860Z,99493.63
2023-04-12T14:20:13.461Z,99491.78
2023-04-12T14:22:41.026Z,99489.69
2023-04-12T14:25:09.454Z,99486.78
2023-04-12T14:27:37.101Z,99485.75
2023-04-12T14:30:07.159Z,99485.19
2023-04-12T14:32:34.942Z,99487.75
2023-04-12T14:35:04.150Z,99489.91
2023-04-12T14:37:33.820Z,99477.84
2023-04-12T14:40:01.362Z,99474.16
2023-04-12T14:42:29.000Z,99474.28
2023-04-12T14:44:56.577Z,99470.09
2023-04-12T14:47:24.158Z,99471.03
2023-04-12T14:49:51.671Z,99468.72
2023-04-12T14:52:19.639Z,99464.19
2023-04-12T14:54:48.507Z,99463.28
2023-04-12T14:57:16.356Z,99461.06
2023-04-12T14:59:44.582Z,99457.78
2023-04-12T15:02:12.396Z,99447.47
2023-04-12T15:04:40.204Z,99444.72
2023-04-12T15:07:07.818Z,99442.41
2023-04-12T15:09:35.498Z,99444.25
2023-04-12T15:12:04.467Z,99445.28
2023-04-12T15:14:32.096Z,99444.47
2023-04-12T15:16:59.670Z,99439.63
2023-04-12T15:19:27.254Z,99445.19
2023-04-12T15:21:55.850Z,99445.53
2023-04-12T15:24:23.866Z,99441.00
2023-04-12T15:26:52.585Z,99440.50
2023-04-12T15:29:22.127Z,99440.75
2023-04-12T15:31:50.264Z,99438.81
2023-04-12T15:34:17.830Z,99435.69
2023-04-12T15:36:45.776Z,99431.47
2023-04-12T15:39:14.779Z,99425.94
2023-04-12T15:41:43.146Z,99426.53
2023-04-12T15:44:13.172Z,99428.72
2023-04-12T15:46:43.154Z,99424.66
2023-04-12T15:49:11.332Z,99420.03
2023-04-12T15:51:39.075Z,99417.59
2023-04-12T15:54:07.206Z,99417.16
2023-04-12T15:56:35.335Z,99423.97
2023-04-12T15:59:02.978Z,99420.28
2023-04-12T16:01:30.688Z,99420.16
2023-04-12T16:03:59.844Z,99419.84
2023-04-12T16:06:30.300Z,99407.75
2023-04-12T16:08:58.184Z,99415.28
2023-04-12T16:11:26.432Z,99408.72
2023-04-12T16:13:55.243Z,99411.47
2023-04-12T16:16:24.595Z,99412.28
2023-04-12T16:18:53.010Z,99417.63
2023-04-12T16:21:23.380Z,99409.03
2023-04-12T16:23:51.982Z,99410.19
2023-04-12T16:26:21.618Z,99408.09
2023-04-12T16:28:50.262Z,99400.22
2023-04-12T16:31:19.743Z,99404.88
2023-04-12T16:33:47.832Z,99400.44
2023-04-12T16:36:16.155Z,99400.22
2023-04-12T16:38:46.186Z,99399.53
2023-04-12T16:41:13.692Z,99412.41
2023-04-12T16:43:44.046Z,99411.59
2023-04-12T16:46:12.966Z,99409.50
2023-04-12T16:48:41.191Z,99402.09
2023-04-12T16:51:08.977Z,99397.69
2023-04-12T16:53:37.377Z,99404.16
2023-04-12T16:56:07.010Z,99397.81
2023-04-12T16:58:34.564Z,99390.28
2023-04-12T17:01:02.183Z,99384.81
2023-04-12T17:03:30.162Z,99384.34
2023-04-12T17:05:58.146Z,99383.88
2023-04-12T17:08:25.811Z,99375.31
2023-04-12T17:10:54.138Z,99382.50
2023-04-12T17:13:23.007Z,99377.50
2023-04-12T17:15:50.690Z,99378.31
2023-04-12T17:18:18.266Z,99377.66
2023-04-12T17:20:46.002Z,99376.56
2023-04-12T17:23:13.747Z,99373.91
2023-04-12T17:25:42.328Z,99372.88
2023-04-12T17:28:09.906Z,99369.50
2023-04-12T17:30:38.753Z,99364.41
2023-04-12T17:33:07.553Z,99361.28
2023-04-12T17:35:36.445Z,99360.72
2023-04-12T17:38:04.041Z,99349.94
2023-04-12T17:40:31.577Z,99361.28
2023-04-12T17:42:59.154Z,99362.44
2023-04-12T17:45:26.816Z,99350.16
2023-04-12T17:47:55.693Z,99356.72
2023-04-12T17:50:23.371Z,99354.31
2023-04-12T17:52:50.945Z,99353.41
2023-04-12T17:55:23.332Z,99345.84
2023-04-12T17:57:51.008Z,99352.72
2023-04-12T18:00:19.761Z,99354.31
2023-04-12T18:02:47.738Z,99358.38
2023-04-12T18:05:16.928Z,99351.34
2023-04-12T18:07:44.594Z,99357.00
2023-04-12T18:10:18.267Z,99359.78
2023-04-12T18:12:47.672Z,99357.47
2023-04-12T18:15:15.436Z,99362.47
2023-04-12T18:17:43.044Z,99364.44
2023-04-12T18:20:11.954Z,99358.75
2023-04-12T18:22:40.946Z,99358.31
2023-04-12T18:25:09.508Z,99356.09
2023-04-12T18:27:37.083Z,99352.41
2023-04-12T18:30:05.489Z,99351.22
2023-04-12T18:32:33.049Z,99340.09
2023-04-12T18:35:01.410Z,99339.41
2023-04-12T18:37:28.907Z,99346.34
2023-04-12T18:39:57.857Z,99355.41
2023-04-12T18:42:25.788Z,99354.94
2023-04-12T18:44:53.386Z,99364.09
2023-04-12T18:47:21.269Z,99371.88
2023-04-12T18:49:49.337Z,99382.19
2023-04-12T18:52:17.149Z,99388.06
2023-04-12T18:54:44.724Z,99394.91
2023-04-12T18:57:14.773Z,99389.56
2023-04-12T18:59:42.406Z,99397.94
2023-04-12T19:02:09.985Z,99401.66
2023-04-12T19:04:39.042Z,99406.16
2023-04-12T19:07:06.737Z,99413.34
2023-04-12T19:09:34.317Z,99414.38
2023-04-12T19:12:02.879Z,99410.69
2023-04-12T19:14:32.028Z,99412.88
2023-04-12T19:16:59.605Z,99411.34
2023-04-12T19:19:27.109Z,99414.63
2023-04-12T19:21:54.663Z,99416.13
2023-04-12T19:24:22.359Z,99431.63
2023-04-12T19:26:50.973Z,99432.44
2023-04-12T19:29:19.595Z,99426.41
2023-04-12T19:31:49.069Z,99427.13
2023-04-12T19:34:17.999Z,99415.09
2023-04-12T19:36:45.755Z,99408.59
2023-04-12T19:39:13.427Z,99422.03
2023-04-12T19:41:41.003Z,99432.34
2023-04-12T19:44:08.640Z,99439.63
2023-04-12T19:46:38.574Z,99455.16
2023-04-12T19:49:08.378Z,99459.19
2023-04-12T19:51:36.486Z,99458.31
2023-04-12T19:54:04.249Z,99466.38
2023-04-12T19:56:31.792Z,99456.63
2023-04-12T19:58:59.947Z,99460.41
2023-04-12T20:01:27.917Z,99448.53
2023-04-12T20:03:55.548Z,99452.31
2023-04-12T20:06:26.402Z,99457.47
2023-04-12T20:08:53.910Z,99456.19
2023-04-12T20:11:21.619Z,99454.13
2023-04-12T20:13:49.222Z,99433.81
2023-04-12T20:16:17.396Z,99443.19
2023-04-12T20:18:45.106Z,99448.13
2023-04-12T20:21:12.607Z,99448.94
2023-04-12T20:23:41.508Z,99449.75
2023-04-12T20:26:09.197Z,99443.41
2023-04-12T20:28:37.612Z,99443.63
2023-04-12T20:31:05.987Z,99437.50
2023-04-12T20:33:33.588Z,99436.72
2023-04-12T20:36:01.188Z,99422.81
2023-04-12T20:38:30.538Z,99427.69
2023-04-12T20:40:59.572Z,99434.94
2023-04-12T20:43:27.189Z,99432.34
2023-04-12T20:45:54.877Z,99452.44
2023-04-12T20:48:22.400Z,99451.16
2023-04-12T20:50:50.307Z,99439.00
2023-04-12T20:53:17.938Z,99431.84
2023-04-12T20:55:46.483Z,99440.97
2023-04-12T20:58:16.249Z,99437.81
2023-04-12T21:00:43.929Z,99425.56
2023-04-12T21:03:12.200Z,99425.84
2023-04-12T21:05:40.712Z,99426.06
2023-04-12T21:08:08.386Z,99421.59
2023-04-12T21:10:35.920Z,99420.09
2023-04-12T21:13:03.423Z,99418.31
2023-04-12T21:15:35.306Z,99417.09
2023-04-12T21:18:04.070Z,99421.34
2023-04-12T21:20:31.822Z,99417.44
2023-04-12T21:22:59.297Z,99419.94
2023-04-12T21:25:26.884Z,99428.75
2023-04-12T21:27:54.679Z,99439.94
2023-04-12T21:30:22.313Z,99448.34
2023-04-12T21:32:53.492Z,99447.19
2023-04-12T21:35:22.625Z,99462.09
2023-04-12T21:37:50.207Z,99469.03
2023-04-12T21:40:18.001Z,99476.84
2023-04-12T21:42:45.834Z,99474.84
2023-04-12T21:45:14.222Z,99476.69
2023-04-12T21:47:42.945Z,99477.88
2023-04-12T21:50:12.539Z,99476.09
2023-04-12T21:52:40.393Z,99485.09
2023-04-12T21:55:08.510Z,99494.69
2023-04-12T21:57:36.537Z,99505.47
2023-04-12T22:00:05.601Z,99518.22
2023-04-12T22:02:39.312Z,99522.69
2023-04-12T22:05:08.621Z,99527.78
2023-04-12T22:07:40.753Z,99526.03
2023-04-12T22:10:09.317Z,99529.56
2023-04-12T22:12:37.421Z,99522.84
2023-04-12T22:15:05.986Z,99518.81
2023-04-12T22:17:34.092Z,99517.81
2023-04-12T22:20:01.640Z,99518.41
2023-04-12T22:22:29.778Z,99518.41
2023-04-12T22:24:58.658Z,99520.03
2023-04-12T22:27:26.813Z,99519.59
2023-04-12T22:29:54.366Z,99521.06
2023-04-12T22:32:22.043Z,99513.66
2023-04-12T22:34:58.038Z,99515.50
2023-04-12T22:37:33.424Z,99517.09
2023-04-12T22:40:02.555Z,99518.72
2023-04-12T22:42:30.207Z,99519.16
2023-04-12T22:44:58.831Z,99517.91
2023-04-12T22:47:26.646Z,99509.72
2023-04-12T22:49:58.173Z,99515.47
2023-04-12T22:52:26.003Z,99508.31
2023-04-12T22:54:53.612Z,99507.66
2023-04-12T22:57:23.523Z,99504.41
2023-04-12T22:59:53.133Z,99508.63
2023-04-12T23:02:20.651Z,99499.66
2023-04-12T23:04:48.956Z,99518.06
2023-04-12T23:07:17.055Z,99515.25
2023-04-12T23:09:45.446Z,99501.69
2023-04-12T23:12:13.566Z,99495.94
2023-04-12T23:14:42.453Z,99476.78
2023-04-12T23:17:10.130Z,99479.38
2023-04-12T23:19:37.638Z,99485.50
2023-04-12T23:22:06.032Z,99488.75
2023-04-12T23:24:34.243Z,99478.91
2023-04-12T23:27:02.890Z,99475.63
2023-04-12T23:29:30.368Z,99474.66
2023-04-12T23:31:59.423Z,99478.72
2023-04-12T23:34:27.011Z,99495.63
2023-04-12T23:36:54.947Z,99503.31
2023-04-12T23:39:22.734Z,99490.81
2023-04-12T23:41:50.964Z,99489.13
2023-04-12T23:44:18.715Z,99500.16
2023-04-12T23:46:46.258Z,99499.41
2023-04-12T23:49:15.261Z,99497.56
2023-04-12T23:51:42.807Z,99503.72
2023-04-12T23:54:10.482Z,99508.00
2023-04-12T23:56:38.038Z,99512.84
2023-04-12T23:59:06.054Z,99505.66
